createdAt,value
2022-08-28T00:00:12.898Z,5.78
2022-08-28T00:02:42.966Z,6.75
2022-08-28T00:05:12.877Z,6.43
2022-08-28T00:07:46.975Z,7.90
2022-08-28T00:10:18.970Z,7.22
2022-08-28T00:12:49.194Z,7.40
2022-08-28T00:15:20.335Z,9.75
2022-08-28T00:17:51.351Z,7.90
2022-08-28T00:20:23.167Z,6.95
2022-08-28T00:22:53.179Z,7.47
2022-08-28T00:25:24.599Z,6.20
2022-08-28T00:27:55.606Z,7.85
2022-08-28T00:30:27.901Z,9.23
2022-08-28T00:33:00.288Z,8.65
2022-08-28T00:35:30.362Z,9.95
2022-08-28T00:37:59.316Z,9.20
2022-08-28T00:40:32.943Z,7.65
2022-08-28T00:43:04.501Z,12.23
2022-08-28T00:45:39.326Z,9.25
2022-08-28T00:48:10.381Z,8.00
2022-08-28T00:51:00.347Z,7.90
2022-08-28T00:53:32.851Z,8.07
2022-08-28T00:56:10.363Z,7.28
2022-08-28T00:58:44.916Z,6.30
2022-08-28T01:01:14.703Z,8.18
2022-08-28T01:03:46.311Z,10.75
2022-08-28T01:06:16.634Z,10.63
2022-08-28T01:08:50.602Z,9.75
2022-08-28T01:11:21.002Z,7.75
2022-08-28T01:13:54.343Z,7.18
2022-08-28T01:16:28.365Z,9.13
2022-08-28T01:19:05.467Z,8.57
2022-08-28T01:21:40.871Z,7.93
2022-08-28T01:24:14.713Z,7.63
2022-08-28T01:26:44.245Z,8.52
2022-08-28T01:29:13.225Z,7.38
2022-08-28T01:31:43.263Z,10.38
2022-08-28T01:34:13.099Z,9.32
2022-08-28T01:36:43.440Z,9.70
2022-08-28T01:39:15.986Z,9.27
2022-08-28T01:41:47.500Z,8.52
2022-08-28T01:44:18.259Z,9.32
2022-08-28T01:46:47.750Z,8.98
2022-08-28T01:49:17.115Z,8.38
2022-08-28T01:51:46.889Z,11.77
2022-08-28T01:54:19.230Z,9.57
2022-08-28T01:56:48.025Z,9.13
2022-08-28T01:59:17.107Z,10.55
2022-08-28T02:01:46.790Z,13.65
2022-08-28T02:04:16.854Z,11.57
2022-08-28T02:06:45.419Z,8.75
2022-08-28T02:09:15.021Z,11.18
2022-08-28T02:11:46.571Z,12.88
2022-08-28T02:14:16.706Z,10.15
2022-08-28T02:16:45.438Z,10.07
2022-08-28T02:19:14.398Z,9.30
2022-08-28T02:21:42.839Z,11.55
2022-08-28T02:24:12.082Z,10.15
2022-08-28T02:26:41.027Z,10.45
2022-08-28T02:29:10.750Z,9.63
2022-08-28T02:31:40.131Z,10.20
2022-08-28T02:34:11.034Z,12.75
2022-08-28T02:36:43.034Z,12.75
2022-08-28T02:39:12.111Z,11.05
2022-08-28T02:41:41.311Z,10.10
2022-08-28T02:44:11.263Z,13.20
2022-08-28T02:46:40.335Z,10.90
2022-08-28T02:49:08.659Z,9.55
2022-08-28T02:51:37.884Z,9.55
2022-08-28T02:54:06.314Z,9.73
2022-08-28T02:56:35.443Z,11.43
2022-08-28T02:59:04.288Z,9.80
2022-08-28T03:01:34.969Z,9.40
2022-08-28T03:04:03.811Z,10.25
2022-08-28T03:06:34.154Z,10.63
2022-08-28T03:09:02.736Z,10.43
2022-08-28T03:11:31.207Z,10.32
2022-08-28T03:14:02.942Z,10.07
2022-08-28T03:16:32.886Z,13.00
2022-08-28T03:19:03.758Z,12.23
2022-08-28T03:21:32.909Z,11.73
2022-08-28T03:24:00.641Z,13.15
2022-08-28T03:26:29.681Z,11.23
2022-08-28T03:28:59.726Z,10.65
2022-08-28T03:31:33.089Z,13.70
2022-08-28T03:34:03.882Z,11.02
2022-08-28T03:36:34.236Z,14.20
2022-08-28T03:39:05.871Z,11.40
2022-08-28T03:41:35.395Z,13.70
2022-08-28T03:44:05.058Z,13.35
2022-08-28T03:46:34.750Z,15.65
2022-08-28T03:49:06.499Z,13.40
2022-08-28T03:51:36.105Z,12.32
2022-08-28T03:54:05.576Z,12.20
2022-08-28T03:56:34.513Z,11.30
2022-08-28T03:59:05.691Z,15.57
2022-08-28T04:01:34.896Z,13.13
2022-08-28T04:04:05.657Z,13.55
2022-08-28T04:06:34.010Z,13.77
2022-08-28T04:09:05.060Z,13.00
2022-08-28T04:11:38.349Z,12.65
2022-08-28T04:14:07.522Z,13.80
2022-08-28T04:16:36.722Z,13.88
2022-08-28T04:19:07.281Z,16.95
2022-08-28T04:21:36.127Z,13.95
2022-08-28T04:24:09.407Z,14.00
2022-08-28T04:26:38.434Z,15.63
2022-08-28T04:29:08.137Z,15.00
2022-08-28T04:31:37.795Z,16.80
2022-08-28T04:34:09.195Z,15.20
2022-08-28T04:36:39.391Z,15.27
2022-08-28T04:39:10.210Z,15.48
2022-08-28T04:41:39.514Z,13.23
2022-08-28T04:44:08.943Z,15.25
2022-08-28T04:46:38.527Z,17.15
2022-08-28T04:49:09.170Z,14.82
2022-08-28T04:51:41.875Z,17.77
2022-08-28T04:54:12.271Z,15.68
2022-08-28T04:56:40.911Z,14.82
2022-08-28T04:59:10.463Z,15.02
2022-08-28T05:01:39.236Z,15.13
2022-08-28T05:04:11.947Z,17.70
2022-08-28T05:06:43.887Z,16.50
2022-08-28T05:09:12.204Z,14.63
2022-08-28T05:11:41.299Z,13.77
2022-08-28T05:14:15.393Z,16.45
2022-08-28T05:16:47.949Z,16.55
2022-08-28T05:19:19.371Z,18.25
2022-08-28T05:21:49.065Z,18.63
2022-08-28T05:24:18.060Z,15.50
2022-08-28T05:26:48.319Z,14.60
2022-08-28T05:29:17.742Z,16.38
2022-08-28T05:31:47.848Z,17.63
2022-08-28T05:34:17.829Z,14.98
2022-08-28T05:36:46.953Z,15.75
2022-08-28T05:39:17.370Z,16.33
2022-08-28T05:41:47.653Z,14.82
2022-08-28T05:44:18.029Z,15.13
2022-08-28T05:46:49.051Z,15.25
2022-08-28T05:49:20.400Z,15.25
2022-08-28T05:51:50.890Z,15.10
2022-08-28T05:54:19.956Z,15.65
2022-08-28T05:56:49.309Z,15.30
2022-08-28T05:59:18.756Z,17.20
2022-08-28T06:01:49.206Z,15.88
2022-08-28T06:04:24.094Z,17.45
2022-08-28T06:06:52.783Z,20.02
2022-08-28T06:09:28.759Z,16.23
2022-08-28T06:12:00.259Z,14.88
2022-08-28T06:14:29.715Z,14.38
2022-08-28T06:16:59.887Z,16.98
2022-08-28T06:19:31.920Z,16.80
2022-08-28T06:22:07.287Z,15.77
2022-08-28T06:24:36.448Z,16.13
2022-08-28T06:27:06.175Z,17.45
2022-08-28T06:29:34.876Z,16.88
2022-08-28T06:32:05.952Z,18.65
2022-08-28T06:34:35.777Z,17.02
2022-08-28T06:37:04.982Z,18.88
2022-08-28T06:39:33.352Z,18.23
2022-08-28T06:42:02.002Z,15.70
2022-08-28T06:44:32.565Z,16.92
2022-08-28T06:47:00.923Z,15.65
2022-08-28T06:49:29.715Z,17.08
2022-08-28T06:51:59.815Z,15.80
2022-08-28T06:54:30.913Z,17.92
2022-08-28T06:56:59.837Z,16.60
2022-08-28T07:02:19.180Z,14.30
2022-08-28T07:04:51.760Z,15.85
2022-08-28T07:07:32.426Z,14.27
2022-08-28T07:10:01.183Z,14.95
2022-08-28T07:12:30.259Z,17.50
2022-08-28T07:14:58.626Z,16.02
2022-08-28T07:17:27.750Z,15.93
2022-08-28T07:19:56.587Z,16.30
2022-08-28T07:22:26.550Z,17.13
2022-08-28T07:24:55.957Z,18.42
2022-08-28T07:27:25.259Z,17.33
2022-08-28T07:29:54.430Z,14.90
2022-08-28T07:32:22.779Z,16.17
2022-08-28T07:34:52.273Z,15.93
2022-08-28T07:37:20.842Z,15.25
2022-08-28T07:39:51.323Z,18.75
2022-08-28T07:42:35.664Z,15.82
2022-08-28T07:45:05.435Z,16.23
2022-08-28T07:47:34.178Z,15.27
2022-08-28T07:50:03.321Z,14.88
2022-08-28T07:52:31.658Z,16.13
2022-08-28T07:55:01.691Z,15.38
2022-08-28T07:57:32.415Z,17.60
2022-08-28T08:00:00.727Z,15.68
2022-08-28T08:02:30.398Z,14.45
2022-08-28T08:04:59.069Z,15.05
2022-08-28T08:07:27.374Z,18.70
2022-08-28T08:09:56.487Z,16.35
2022-08-28T08:12:29.492Z,14.55
2022-08-28T08:14:57.916Z,16.63
2022-08-28T08:17:27.135Z,17.55
2022-08-28T08:19:55.567Z,14.98
2022-08-28T08:22:25.649Z,11.98
2022-08-28T08:24:55.285Z,11.90
2022-08-28T08:27:24.586Z,15.52
2022-08-28T08:29:54.618Z,12.02
2022-08-28T08:32:23.008Z,13.70
2022-08-28T08:34:56.014Z,12.85
2022-08-28T08:37:24.823Z,12.48
2022-08-28T08:39:54.613Z,11.90
2022-08-28T08:42:26.876Z,12.20
2022-08-28T08:44:59.370Z,11.50
2022-08-28T08:47:36.399Z,12.85
2022-08-28T08:50:08.452Z,11.88
2022-08-28T08:52:41.419Z,11.55
2022-08-28T08:55:32.615Z,12.70
2022-08-28T08:58:07.542Z,11.27
2022-08-28T09:00:44.644Z,11.02
2022-08-28T09:03:17.123Z,11.35
2022-08-28T09:05:50.793Z,10.63
2022-08-28T09:08:32.834Z,12.57
2022-08-28T09:11:07.548Z,11.73
2022-08-28T09:13:47.350Z,11.40
2022-08-28T09:16:25.215Z,10.15
2022-08-28T09:18:57.320Z,9.98
2022-08-28T09:21:31.143Z,12.45
2022-08-28T09:24:05.756Z,10.88
2022-08-28T09:26:35.816Z,11.85
2022-08-28T09:29:07.734Z,10.38
2022-08-28T09:31:41.579Z,12.30
2022-08-28T09:34:24.054Z,12.40
2022-08-28T09:36:54.213Z,10.70
2022-08-28T09:39:24.741Z,9.63
2022-08-28T09:42:15.590Z,11.50
2022-08-28T09:44:53.606Z,9.88
2022-08-28T09:47:46.048Z,11.05
2022-08-28T09:50:35.169Z,11.43
2022-08-28T09:53:20.974Z,9.88
2022-08-28T09:55:57.927Z,11.18
2022-08-28T09:58:39.061Z,11.70
2022-08-28T10:01:38.097Z,8.82
2022-08-28T10:04:25.840Z,9.43
2022-08-28T10:06:58.286Z,10.35
2022-08-28T10:09:34.115Z,10.70
2022-08-28T10:12:15.585Z,9.38
2022-08-28T10:14:55.177Z,9.13
2022-08-28T10:17:38.318Z,9.25
2022-08-28T10:20:15.935Z,8.40
2022-08-28T10:22:53.883Z,9.20
2022-08-28T10:25:28.180Z,11.75
2022-08-28T10:28:12.844Z,8.25
2022-08-28T10:30:53.341Z,8.45
2022-08-28T10:33:36.709Z,9.32
2022-08-28T10:36:26.441Z,7.28
2022-08-28T10:39:13.035Z,8.45
2022-08-28T10:41:47.278Z,8.68
2022-08-28T10:44:22.040Z,7.85
2022-08-28T10:46:53.513Z,8.07
2022-08-28T10:49:27.567Z,7.85
2022-08-28T10:52:03.277Z,8.63
2022-08-28T10:54:41.811Z,9.50
2022-08-28T10:57:23.550Z,7.18
2022-08-28T10:59:54.749Z,7.25
2022-08-28T11:02:27.045Z,7.00
2022-08-28T11:04:58.923Z,7.70
2022-08-28T11:07:33.502Z,6.85
2022-08-28T11:10:45.768Z,6.03
2022-08-28T11:13:34.413Z,7.07
2022-08-28T11:16:13.316Z,9.07
2022-08-28T11:19:15.432Z,9.00
2022-08-28T11:21:48.971Z,7.80
2022-08-28T11:24:35.194Z,7.35
2022-08-28T11:27:17.977Z,9.07
2022-08-28T11:30:22.748Z,7.82
2022-08-28T11:33:08.114Z,8.38
2022-08-28T11:35:44.387Z,6.75
2022-08-28T11:38:15.598Z,7.70
2022-08-28T11:41:11.173Z,6.20
2022-08-28T11:43:41.670Z,6.00
2022-08-28T11:46:26.276Z,6.55
2022-08-28T11:48:57.352Z,7.53
2022-08-28T11:51:56.936Z,7.45
2022-08-28T11:54:39.420Z,6.35
2022-08-28T11:57:18.710Z,5.18
2022-08-28T12:00:02.623Z,6.18
2022-08-28T12:02:50.553Z,6.45
2022-08-28T12:05:54.927Z,5.90
2022-08-28T12:09:09.573Z,5.43
2022-08-28T12:11:59.501Z,8.75
2022-08-28T12:15:08.885Z,7.28
2022-08-28T12:17:50.121Z,7.32
2022-08-28T12:20:40.314Z,7.50
2022-08-28T12:23:41.450Z,7.97
2022-08-28T12:26:18.918Z,5.32
2022-08-28T12:28:50.459Z,8.13
2022-08-28T12:32:13.453Z,5.90
2022-08-28T12:34:53.927Z,7.40
2022-08-28T12:37:51.015Z,7.32
2022-08-28T12:40:25.279Z,6.03
2022-08-28T12:42:56.575Z,5.43
2022-08-28T12:45:29.129Z,7.47
2022-08-28T12:48:01.042Z,10.10
2022-08-28T12:50:35.605Z,6.22
2022-08-28T12:53:12.624Z,7.60
2022-08-28T12:55:42.002Z,7.57
2022-08-28T12:58:15.370Z,5.82
2022-08-28T13:00:54.210Z,6.05
2022-08-28T13:03:23.599Z,5.28
2022-08-28T13:06:01.346Z,8.63
2022-08-28T13:08:30.602Z,6.85
2022-08-28T13:10:59.362Z,5.70
2022-08-28T13:13:35.810Z,7.13
2022-08-28T13:16:06.177Z,5.30
2022-08-28T13:18:51.788Z,4.60
2022-08-28T13:21:34.023Z,6.30
2022-08-28T13:24:27.591Z,5.03
2022-08-28T13:27:07.016Z,6.70
2022-08-28T13:29:36.850Z,4.43
2022-08-28T13:32:08.395Z,7.05
2022-08-28T13:34:48.049Z,6.32
2022-08-28T13:37:44.432Z,5.43
2022-08-28T13:40:38.154Z,5.28
2022-08-28T13:43:08.105Z,4.88
2022-08-28T13:45:43.520Z,8.50
2022-08-28T13:48:14.334Z,6.90
2022-08-28T13:50:46.601Z,4.43
2022-08-28T13:53:19.529Z,5.88
2022-08-28T13:55:50.453Z,5.40
2022-08-28T13:58:19.123Z,5.03
2022-08-28T14:00:51.118Z,7.90
2022-08-28T14:03:38.906Z,4.80
2022-08-28T14:06:12.292Z,6.70
2022-08-28T14:08:44.080Z,4.97
2022-08-28T14:11:15.073Z,4.18
2022-08-28T14:13:46.881Z,4.47
2022-08-28T14:16:24.596Z,5.78
2022-08-28T14:18:54.232Z,6.38
2022-08-28T14:21:24.361Z,8.18
2022-08-28T14:23:54.772Z,5.15
2022-08-28T14:26:23.565Z,3.70
2022-08-28T14:28:51.870Z,3.75
2022-08-28T14:31:21.112Z,4.05
2022-08-28T14:33:55.089Z,4.35
2022-08-28T14:36:27.059Z,5.32
2022-08-28T14:39:02.828Z,6.53
2022-08-28T14:41:35.565Z,4.60
2022-08-28T14:44:04.989Z,6.38
2022-08-28T14:46:36.557Z,5.15
2022-08-28T14:49:08.786Z,5.88
2022-08-28T14:51:39.379Z,6.90
2022-08-28T14:54:12.693Z,5.53
2022-08-28T14:56:41.710Z,4.45
2022-08-28T14:59:17.539Z,7.57
2022-08-28T15:01:49.471Z,6.32
2022-08-28T15:04:23.015Z,3.65
2022-08-28T15:06:52.707Z,5.68
2022-08-28T15:09:23.016Z,8.90
2022-08-28T15:11:51.394Z,4.68
2022-08-28T15:14:20.742Z,5.50
2022-08-28T15:16:50.678Z,6.22
2022-08-28T15:19:19.559Z,5.43
2022-08-28T15:21:51.526Z,5.70
2022-08-28T15:24:24.613Z,5.40
2022-08-28T15:26:54.236Z,3.92
2022-08-28T15:29:22.547Z,4.82
2022-08-28T15:31:53.261Z,6.97
2022-08-28T15:34:24.162Z,4.82
2022-08-28T15:36:55.676Z,6.30
2022-08-28T15:39:44.292Z,9.40
2022-08-28T15:42:13.517Z,8.65
2022-08-28T15:44:43.090Z,6.35
2022-08-28T15:47:12.540Z,5.82
2022-08-28T15:49:46.137Z,5.15
2022-08-28T15:52:19.947Z,6.28
2022-08-28T15:54:50.074Z,6.22
2022-08-28T15:57:19.469Z,4.82
2022-08-28T15:59:49.828Z,6.85
2022-08-28T16:02:20.971Z,6.18
2022-08-28T16:04:50.016Z,8.35
2022-08-28T16:07:20.060Z,8.45
2022-08-28T16:09:50.454Z,5.60
2022-08-28T16:12:19.231Z,6.00
2022-08-28T16:14:48.724Z,4.30
2022-08-28T16:17:18.677Z,7.20
2022-08-28T16:19:48.397Z,5.18
2022-08-28T16:22:18.642Z,9.52
2022-08-28T16:24:47.094Z,5.22
2022-08-28T16:27:17.655Z,4.65
2022-08-28T16:29:49.469Z,8.45
2022-08-28T16:32:21.631Z,6.05
2022-08-28T16:34:50.182Z,7.25
2022-08-28T16:37:20.966Z,6.55
2022-08-28T16:39:56.458Z,4.53
2022-08-28T16:42:28.646Z,6.43
2022-08-28T16:45:02.061Z,5.45
2022-08-28T16:47:33.019Z,5.70
2022-08-28T16:50:08.872Z,5.30
2022-08-28T16:52:38.016Z,7.18
2022-08-28T16:55:08.591Z,4.60
2022-08-28T16:57:39.595Z,4.68
2022-08-28T17:00:13.577Z,5.70
2022-08-28T17:02:43.313Z,6.25
2022-08-28T17:05:13.299Z,4.47
2022-08-28T17:07:43.994Z,7.57
2022-08-28T17:10:14.233Z,5.05
2022-08-28T17:12:44.646Z,5.53
2022-08-28T17:15:13.908Z,6.82
2022-08-28T17:17:43.364Z,7.80
2022-08-28T17:20:33.483Z,6.72
2022-08-28T17:23:02.234Z,6.07
2022-08-28T17:25:31.084Z,4.72
2022-08-28T17:28:01.360Z,8.15
2022-08-28T17:30:30.725Z,9.80
2022-08-28T17:32:59.112Z,8.65
2022-08-28T17:35:27.812Z,6.38
2022-08-28T17:37:57.464Z,6.72
2022-08-28T17:40:26.187Z,6.63
2022-08-28T17:42:55.463Z,6.43
2022-08-28T17:45:25.506Z,7.07
2022-08-28T17:47:54.318Z,5.75
2022-08-28T17:50:23.478Z,5.18
2022-08-28T17:52:52.219Z,6.40
2022-08-28T17:55:21.291Z,6.28
2022-08-28T17:57:49.713Z,6.90
2022-08-28T18:00:19.321Z,6.93
2022-08-28T18:02:52.070Z,5.85
2022-08-28T18:05:21.005Z,5.40
2022-08-28T18:07:49.444Z,6.57
2022-08-28T18:10:17.836Z,8.48
2022-08-28T18:12:48.166Z,5.38
2022-08-28T18:15:17.041Z,5.07
2022-08-28T18:17:50.345Z,6.80
2022-08-28T18:20:20.971Z,5.80
2022-08-28T18:22:49.689Z,5.45
2022-08-28T18:25:33.086Z,7.43
2022-08-28T18:28:01.770Z,7.13
2022-08-28T18:30:30.463Z,9.60
2022-08-28T18:32:59.448Z,6.20
2022-08-28T18:35:31.875Z,9.10
2022-08-28T18:38:01.630Z,5.10
2022-08-28T18:40:31.616Z,6.60
2022-08-28T18:43:00.693Z,7.38
2022-08-28T18:45:29.551Z,7.45
2022-08-28T18:47:58.562Z,7.15
2022-08-28T18:50:28.273Z,5.88
2022-08-28T18:52:59.391Z,6.03
2022-08-28T18:55:31.056Z,8.30
2022-08-28T18:58:02.199Z,6.70
2022-08-28T19:00:31.807Z,9.70
2022-08-28T19:03:00.453Z,8.48
2022-08-28T19:05:30.141Z,7.15
2022-08-28T19:08:02.232Z,7.75
2022-08-28T19:10:34.386Z,6.93
2022-08-28T19:13:04.006Z,7.07
2022-08-28T19:15:33.071Z,7.30
2022-08-28T19:18:02.967Z,6.78
2022-08-28T19:20:32.097Z,6.03
2022-08-28T19:23:02.007Z,8.55
2022-08-28T19:25:31.882Z,7.80
2022-08-28T19:28:01.645Z,7.35
2022-08-28T19:30:33.391Z,6.65
2022-08-28T19:33:03.715Z,5.38
2022-08-28T19:35:34.034Z,6.03
2022-08-28T19:38:03.766Z,7.55
2022-08-28T19:40:34.051Z,8.65
2022-08-28T19:43:02.935Z,11.18
2022-08-28T19:45:34.389Z,8.80
2022-08-28T19:48:03.257Z,8.13
2022-08-28T19:50:32.662Z,6.10
2022-08-28T19:53:01.121Z,7.80
2022-08-28T19:55:31.535Z,6.10
2022-08-28T19:58:00.467Z,6.07
2022-08-28T20:00:30.047Z,5.53
2022-08-28T20:02:58.800Z,6.13
2022-08-28T20:05:27.547Z,6.40
2022-08-28T20:07:55.942Z,6.00
2022-08-28T20:10:24.323Z,9.73
2022-08-28T20:12:55.011Z,6.18
2022-08-28T20:15:24.416Z,7.70
2022-08-28T20:17:52.832Z,7.03
2022-08-28T20:20:25.671Z,6.95
2022-08-28T20:22:58.343Z,7.25
2022-08-28T20:25:27.633Z,6.30
2022-08-28T20:28:01.532Z,7.28
2022-08-28T20:30:31.086Z,7.60
2022-08-28T20:33:01.227Z,5.95
2022-08-28T20:35:30.574Z,8.00
2022-08-28T20:37:58.947Z,6.68
2022-08-28T20:40:27.815Z,6.65
2022-08-28T20:42:59.960Z,6.38
2022-08-28T20:45:28.595Z,7.97
2022-08-28T20:47:57.692Z,7.75
2022-08-28T20:50:26.642Z,9.43
2022-08-28T20:52:55.947Z,6.63
2022-08-28T20:55:24.338Z,7.43
2022-08-28T20:57:53.341Z,6.20
2022-08-28T21:00:25.698Z,6.82
2022-08-28T21:02:54.493Z,10.40
2022-08-28T21:05:22.891Z,6.53
2022-08-28T21:07:51.606Z,7.35
2022-08-28T21:10:20.111Z,6.85
2022-08-28T21:12:48.814Z,7.43
2022-08-28T21:15:17.226Z,7.68
2022-08-28T21:17:48.527Z,7.63
2022-08-28T21:20:17.437Z,8.07
2022-08-28T21:22:47.314Z,6.85
2022-08-28T21:25:17.099Z,9.15
2022-08-28T21:27:47.335Z,7.22
2022-08-28T21:30:18.392Z,8.18
2022-08-28T21:32:51.229Z,8.10
2022-08-28T21:35:21.981Z,10.95
2022-08-28T21:37:51.115Z,8.93
2022-08-28T21:40:20.174Z,7.35
2022-08-28T21:42:48.409Z,8.18
2022-08-28T21:45:17.149Z,7.15
2022-08-28T21:47:48.391Z,7.57
2022-08-28T21:50:17.560Z,8.02
2022-08-28T21:52:46.329Z,7.78
2022-08-28T21:55:17.405Z,8.07
2022-08-28T21:57:47.016Z,8.15
2022-08-28T22:00:19.234Z,9.35
2022-08-28T22:02:49.571Z,7.75
2022-08-28T22:05:18.274Z,13.07
2022-08-28T22:07:47.189Z,8.43
2022-08-28T22:10:16.416Z,8.73
2022-08-28T22:12:44.853Z,7.20
2022-08-28T22:15:14.130Z,7.40
2022-08-28T22:17:42.478Z,7.75
2022-08-28T22:20:12.967Z,8.77
2022-08-28T22:22:59.162Z,8.02
2022-08-28T22:25:27.469Z,7.22
2022-08-28T22:27:56.430Z,10.38
2022-08-28T22:30:25.006Z,6.82
2022-08-28T22:32:53.855Z,8.35
2022-08-28T22:35:25.351Z,7.75
2022-08-28T22:37:53.778Z,8.30
2022-08-28T22:40:24.537Z,8.00
2022-08-28T22:42:52.893Z,9.77
2022-08-28T22:45:22.439Z,10.52
2022-08-28T22:47:51.570Z,7.97
2022-08-28T22:50:20.441Z,7.43
2022-08-28T22:52:51.262Z,7.72
2022-08-28T22:55:21.858Z,7.72
2022-08-28T22:57:51.712Z,8.63
2022-08-28T23:00:23.857Z,12.48
2022-08-28T23:02:54.366Z,8.00
2022-08-28T23:05:23.518Z,13.80
2022-08-28T23:07:55.000Z,10.57
2022-08-28T23:10:42.102Z,8.38
2022-08-28T23:13:14.594Z,8.27
2022-08-28T23:15:44.572Z,8.38
2022-08-28T23:18:13.062Z,7.68
2022-08-28T23:20:42.582Z,8.05
2022-08-28T23:23:12.900Z,9.00
2022-08-28T23:25:41.247Z,8.43
2022-08-28T23:28:10.387Z,8.45
2022-08-28T23:30:38.896Z,9.32
2022-08-28T23:33:08.801Z,10.77
2022-08-28T23:35:38.031Z,11.43
2022-08-28T23:38:07.320Z,10.23
2022-08-28T23:40:37.444Z,9.77
2022-08-28T23:43:06.647Z,9.77
2022-08-28T23:45:35.036Z,10.27
2022-08-28T23:48:04.635Z,8.55
2022-08-28T23:50:34.266Z,10.00
2022-08-28T23:53:03.242Z,12.52
2022-08-28T23:55:33.430Z,9.35
2022-08-28T23:58:04.113Z,9.02
